Time;durP1;ratioP1;P1;durP2;ratioP2;P2;SDS_P1;SDS_P2;PMS_P1;PMS_P2;Temp;Humidity;BMP_temperature;BMP_pressure;BME280_temperature;BME280_humidity;BME280_pressure;Samples;Min_cycle;Max_cycle;Signal;HPM_P1;HPM_P2
2023/11/30 00:02:49;;;;;;;14.20;12.02;;;;;;;3.96;92.16;98881.38;10241052;28;20050;-64
2023/11/30 00:07:52;;;;;;;13.60;11.43;;;;;;;3.81;92.82;98870.19;10234866;28;20057;-64
2023/11/30 00:12:53;;;;;;;12.90;11.55;;;;;;;3.87;93.04;98875.84;10225634;28;20125;-64
2023/11/30 00:17:55;;;;;;;12.85;11.55;;;;;;;4.01;93.00;98876.63;10243194;28;20058;-64
2023/11/30 00:22:56;;;;;;;11.98;10.73;;;;;;;4.09;92.26;98876.03;10232789;28;20050;-63
2023/11/30 00:27:58;;;;;;;13.35;11.50;;;;;;;4.03;92.05;98869.44;10220124;28;20103;-64
2023/11/30 00:33:00;;;;;;;12.27;10.98;;;;;;;3.96;92.23;98862.94;10245545;28;20819;-63
2023/11/30 00:38:01;;;;;;;13.45;11.45;;;;;;;4.10;92.28;98870.66;10238919;28;20979;-64
2023/11/30 00:43:03;;;;;;;14.05;11.10;;;;;;;4.26;92.24;98886.09;10240308;28;20053;-63
2023/11/30 00:48:05;;;;;;;11.85;10.65;;;;;;;4.33;91.50;98881.22;10246634;28;20073;-63
2023/11/30 00:53:06;;;;;;;12.02;10.73;;;;;;;4.30;91.24;98868.28;10216265;28;20070;-63
2023/11/30 00:58:08;;;;;;;11.80;10.57;;;;;;;4.35;91.30;98864.31;10228350;28;20116;-63
2023/11/30 01:03:09;;;;;;;12.82;11.50;;;;;;;4.38;90.73;98868.53;10223476;28;20133;-65
2023/11/30 01:08:12;;;;;;;13.40;10.98;;;;;;;4.39;90.96;98870.22;10243929;28;20046;-64
2023/11/30 01:13:13;;;;;;;12.38;11.07;;;;;;;4.41;90.59;98878.81;10247472;28;20555;-63
2023/11/30 01:18:15;;;;;;;12.93;11.52;;;;;;;4.41;90.27;98873.56;10253829;28;20050;-63
2023/11/30 01:23:16;;;;;;;13.73;11.38;;;;;;;4.51;90.71;98885.06;10236384;28;20573;-64
2023/11/30 01:28:17;;;;;;;12.27;10.55;;;;;;;4.50;90.23;98882.56;10221585;28;20185;-63
2023/11/30 01:33:19;;;;;;;12.05;10.77;;;;;;;4.49;89.74;98873.81;10230228;28;20170;-63
2023/11/30 01:38:20;;;;;;;12.82;11.52;;;;;;;4.41;89.94;98863.00;10249967;28;20136;-63
2023/11/30 01:43:22;;;;;;;12.20;10.95;;;;;;;4.46;89.84;98868.78;10241734;28;20042;-63
2023/11/30 01:48:24;;;;;;;11.57;10.48;;;;;;;4.33;90.03;98828.53;10254923;28;20487;-63
2023/11/30 01:53:27;;;;;;;13.95;11.77;;;;;;;4.54;89.82;98853.22;10249986;28;20051;-64
2023/11/30 01:58:29;;;;;;;13.73;11.38;;;;;;;4.53;89.68;98846.25;10248665;28;20051;-63
2023/11/30 02:03:32;;;;;;;12.25;10.50;;;;;;;4.39;89.38;98820.16;10255032;28;20066;-62
2023/11/30 02:08:34;;;;;;;12.02;10.63;;;;;;;4.47;90.00;98841.47;10245311;28;20053;-62
2023/11/30 02:13:35;;;;;;;12.20;11.00;;;;;;;4.45;89.15;98830.22;10248350;28;20070;-62
2023/11/30 02:18:36;;;;;;;12.07;10.05;;;;;;;4.44;89.29;98823.25;10251267;28;20167;-64
2023/11/30 02:23:38;;;;;;;9.98;8.98;;;;;;;4.48;89.55;98814.16;10235440;28;20678;-64
2023/11/30 02:28:40;;;;;;;10.82;9.73;;;;;;;4.48;89.29;98808.88;10250067;28;20054;-65
2023/11/30 02:33:41;;;;;;;10.77;9.65;;;;;;;4.40;89.50;98782.31;10246613;28;20583;-63
2023/11/30 02:38:42;;;;;;;9.32;8.38;;;;;;;4.43;89.25;98793.44;10247539;28;20142;-64
2023/11/30 02:43:44;;;;;;;11.48;10.02;;;;;;;4.39;89.78;98780.63;10242892;28;20051;-64
2023/11/30 02:48:46;;;;;;;10.57;9.32;;;;;;;4.27;89.33;98757.88;10238416;28;20054;-63
2023/11/30 02:53:47;;;;;;;11.23;10.02;;;;;;;4.30;89.15;98765.56;10229997;28;20129;-64
2023/11/30 02:58:49;;;;;;;11.07;9.98;;;;;;;4.37;89.65;98782.56;10231846;28;20110;-63
2023/11/30 03:03:50;;;;;;;11.80;10.60;;;;;;;4.34;89.53;98769.59;10242157;28;21223;-64
2023/11/30 03:08:52;;;;;;;11.05;9.85;;;;;;;4.41;89.46;98776.06;10224654;28;20221;-63
2023/11/30 03:13:54;;;;;;;11.18;9.40;;;;;;;4.44;89.46;98736.31;10237901;28;20106;-63
2023/11/30 03:18:56;;;;;;;12.90;9.90;;;;;;;4.39;89.14;98749.00;10248903;28;20051;-63
2023/11/30 03:24:17;;;;;;;9.77;8.80;;;;;;;4.50;89.15;98748.97;10209497;28;20043;-64
2023/11/30 03:29:19;;;;;;;11.57;10.38;;;;;;;4.49;88.54;98755.25;10235350;28;20050;-63
2023/11/30 03:34:20;;;;;;;10.68;9.43;;;;;;;4.52;88.91;98748.88;10204179;28;20150;-63
2023/11/30 03:39:21;;;;;;;11.38;10.20;;;;;;;4.37;88.79;98735.97;10209703;28;20129;-64
2023/11/30 03:44:23;;;;;;;9.90;8.93;;;;;;;4.50;89.52;98750.78;10245289;28;20054;-63
2023/11/30 03:49:24;;;;;;;11.27;10.07;;;;;;;4.53;88.90;98761.09;10246313;28;20056;-63
2023/11/30 03:54:26;;;;;;;10.77;9.68;;;;;;;4.54;89.13;98742.53;10241760;28;20698;-63
2023/11/30 03:59:28;;;;;;;10.32;8.95;;;;;;;4.57;88.94;98742.28;10247574;28;20237;-64
2023/11/30 04:04:29;;;;;;;12.05;10.82;;;;;;;4.58;88.81;98746.59;10245850;28;20054;-63
2023/11/30 04:09:37;;;;;;;11.02;9.75;;;;;;;4.50;88.93;98741.09;10223747;28;20603;-64
2023/11/30 04:14:39;;;;;;;13.00;11.20;;;;;;;4.48;87.82;98758.81;10213936;28;20141;-64
2023/11/30 04:19:41;;;;;;;12.48;10.77;;;;;;;4.50;88.58;98748.16;10235695;28;20057;-64
2023/11/30 04:24:44;;;;;;;11.77;10.48;;;;;;;4.34;88.59;98716.91;10246486;28;20054;-63
2023/11/30 04:29:45;;;;;;;10.57;9.35;;;;;;;4.53;89.03;98734.75;10223306;28;20203;-64
2023/11/30 04:34:47;;;;;;;11.93;10.63;;;;;;;4.50;89.04;98724.44;10245684;28;20057;-64
2023/11/30 04:39:49;;;;;;;10.60;9.50;;;;;;;4.57;89.31;98726.47;10250035;28;20058;-64
2023/11/30 04:44:51;;;;;;;11.48;10.27;;;;;;;4.64;89.19;98715.41;10258626;28;20138;-63
2023/11/30 04:49:52;;;;;;;11.00;9.90;;;;;;;4.63;88.74;98716.41;10254057;28;20065;-64
2023/11/30 04:54:56;;;;;;;11.00;9.90;;;;;;;4.73;89.51;98717.34;10242605;28;20063;-63
2023/11/30 04:59:57;;;;;;;11.02;9.90;;;;;;;4.75;88.12;98707.50;10249243;28;20055;-64
2023/11/30 05:04:59;;;;;;;11.27;9.52;;;;;;;4.77;88.79;98703.78;10246250;28;20055;-63
2023/11/30 05:10:00;;;;;;;11.30;10.07;;;;;;;4.78;88.72;98696.69;10223213;28;20051;-62
2023/11/30 05:15:03;;;;;;;12.13;10.70;;;;;;;4.68;88.55;98679.97;10251490;28;20155;-63
2023/11/30 05:20:06;;;;;;;12.27;11.07;;;;;;;4.85;88.38;98684.69;10256091;28;20103;-62
2023/11/30 05:25:07;;;;;;;10.77;9.68;;;;;;;4.80;88.30;98689.50;10240652;28;20704;-64
2023/11/30 05:30:09;;;;;;;12.27;10.98;;;;;;;4.85;88.62;98703.16;10249822;28;20077;-63
2023/11/30 05:35:13;;;;;;;11.40;10.20;;;;;;;4.81;88.51;98707.00;10249710;28;20617;-63
2023/11/30 05:40:18;;;;;;;10.35;9.10;;;;;;;4.65;89.14;98702.13;10250231;28;20164;-62
2023/11/30 05:45:20;;;;;;;12.57;11.10;;;;;;;4.70;88.88;98715.78;10254444;28;20054;-64
2023/11/30 05:50:21;;;;;;;10.68;9.57;;;;;;;4.77;89.26;98713.47;10249280;28;20050;-62
2023/11/30 05:55:23;;;;;;;10.93;9.85;;;;;;;4.75;89.24;98707.50;10244234;28;20628;-64
2023/11/30 06:00:24;;;;;;;11.45;10.25;;;;;;;4.74;89.35;98696.13;10235137;28;20067;-64
2023/11/30 06:05:25;;;;;;;10.93;9.85;;;;;;;4.56;89.21;98672.09;10230824;28;20055;-64
2023/11/30 06:10:27;;;;;;;12.73;11.43;;;;;;;4.70;89.38;98683.28;10218810;28;20074;-63
2023/11/30 06:15:28;;;;;;;12.30;11.05;;;;;;;4.67;89.10;98689.69;10244269;28;20099;-63
2023/11/30 06:20:31;;;;;;;22.80;20.52;;;;;;;4.60;89.49;98667.41;10245461;28;20085;-65
2023/11/30 06:25:32;;;;;;;13.75;10.82;;;;;;;4.63;89.76;98661.06;10233544;28;20078;-64
2023/11/30 06:30:34;;;;;;;12.70;11.38;;;;;;;4.69;89.64;98671.94;10247966;28;20061;-64
2023/11/30 06:35:36;;;;;;;10.55;9.52;;;;;;;4.79;89.94;98661.47;10233732;28;20042;-64
2023/11/30 06:40:38;;;;;;;13.38;11.57;;;;;;;4.82;89.37;98650.69;10244419;28;20051;-62
2023/11/30 06:45:40;;;;;;;11.25;10.00;;;;;;;4.81;89.27;98662.19;10245537;28;20051;-63
2023/11/30 06:50:41;;;;;;;11.73;10.52;;;;;;;4.72;89.45;98636.56;10235917;28;20054;-64
2023/11/30 06:55:44;;;;;;;10.88;9.77;;;;;;;4.84;89.56;98647.91;10234042;28;20051;-63
2023/11/30 07:00:46;;;;;;;11.98;10.25;;;;;;;4.71;89.18;98642.81;10246521;28;20043;-63
2023/11/30 07:05:47;;;;;;;12.13;10.05;;;;;;;4.83;89.34;98660.25;10217511;28;20085;-63
2023/11/30 07:10:49;;;;;;;11.52;10.15;;;;;;;4.73;89.34;98652.28;10246731;28;20062;-63
2023/11/30 07:15:50;;;;;;;12.45;10.05;;;;;;;4.81;89.38;98654.28;10248606;28;20051;-66
2023/11/30 07:20:52;;;;;;;10.40;9.35;;;;;;;4.83;89.23;98662.88;10228642;28;20427;-63
2023/11/30 07:25:58;;;;;;;13.50;9.65;;;;;;;4.89;89.08;98667.66;10226851;28;20047;-63
2023/11/30 07:30:59;;;;;;;12.95;10.60;;;;;;;4.91;89.29;98675.47;10231810;28;20042;-63
2023/11/30 07:36:01;;;;;;;11.90;9.20;;;;;;;4.90;88.80;98673.78;10242392;28;20879;-63
2023/11/30 07:41:03;;;;;;;13.05;11.10;;;;;;;4.93;89.51;98670.88;10238576;28;20067;-63
2023/11/30 07:46:07;;;;;;;11.80;10.60;;;;;;;4.94;88.88;98668.13;10248129;28;20489;-63
2023/11/30 07:51:08;;;;;;;15.82;11.05;;;;;;;4.88;89.09;98663.34;10253455;28;20061;-64
2023/11/30 07:56:13;;;;;;;12.25;9.65;;;;;;;4.95;89.09;98661.03;10235382;28;20050;-63
2023/11/30 08:01:15;;;;;;;12.57;10.40;;;;;;;5.02;88.65;98661.38;10252959;28;20057;-64
2023/11/30 08:06:16;;;;;;;11.30;10.15;;;;;;;5.01;88.98;98654.44;10201006;28;20214;-65
2023/11/30 08:11:18;;;;;;;12.88;11.10;;;;;;;4.95;88.32;98672.44;10240929;28;20051;-64
2023/11/30 08:16:21;;;;;;;12.68;10.85;;;;;;;4.95;88.46;98656.63;10248096;28;20520;-62
2023/11/30 08:21:23;;;;;;;12.50;10.98;;;;;;;4.95;89.13;98659.25;10238471;28;20054;-63
2023/11/30 08:26:25;;;;;;;12.20;10.45;;;;;;;5.01;89.33;98664.97;10240426;28;20084;-63
2023/11/30 08:31:28;;;;;;;11.23;9.65;;;;;;;5.07;88.89;98659.19;10255358;28;21606;-63
2023/11/30 08:36:30;;;;;;;11.43;9.98;;;;;;;5.14;88.99;98657.72;10248384;28;20042;-63
2023/11/30 08:41:31;;;;;;;10.77;9.65;;;;;;;5.10;88.54;98658.94;10239735;28;20192;-61
2023/11/30 08:46:33;;;;;;;11.98;10.38;;;;;;;5.17;88.57;98654.81;10257700;28;20067;-64
2023/11/30 08:51:36;;;;;;;12.73;11.25;;;;;;;5.24;88.60;98661.25;10251350;28;20142;-63
2023/11/30 08:56:37;;;;;;;14.60;11.63;;;;;;;5.18;87.12;98672.34;10251365;28;20421;-64
2023/11/30 09:01:39;;;;;;;11.82;9.80;;;;;;;5.12;87.87;98668.41;10230648;28;20065;-64
2023/11/30 09:06:40;;;;;;;12.55;10.80;;;;;;;5.16;88.29;98662.88;10224235;28;20457;-62
2023/11/30 09:11:44;;;;;;;12.18;10.88;;;;;;;5.00;88.31;98653.59;10249433;28;20086;-63
2023/11/30 09:16:46;;;;;;;12.90;11.35;;;;;;;5.00;87.83;98658.00;10242205;28;20278;-63
2023/11/30 09:21:48;;;;;;;13.27;11.23;;;;;;;5.16;88.76;98662.88;10224366;28;20067;-64
2023/11/30 09:26:51;;;;;;;13.18;11.77;;;;;;;5.06;88.11;98646.94;10233108;28;20060;-62
2023/11/30 09:31:52;;;;;;;14.52;12.48;;;;;;;5.08;87.94;98651.16;10250188;28;20046;-64
2023/11/30 09:36:58;;;;;;;12.40;10.82;;;;;;;5.18;88.47;98643.31;10248935;28;20188;-64
2023/11/30 09:42:00;;;;;;;14.15;12.32;;;;;;;5.16;87.54;98642.59;10248490;28;20053;-63
2023/11/30 09:47:02;;;;;;;13.43;11.30;;;;;;;5.13;87.93;98624.38;10249035;28;20059;-64
2023/11/30 09:52:05;;;;;;;12.80;11.50;;;;;;;5.25;86.95;98622.53;10211146;28;20065;-64
2023/11/30 09:57:06;;;;;;;13.10;11.73;;;;;;;5.29;86.97;98622.13;10247546;28;20472;-64
2023/11/30 10:02:09;;;;;;;12.38;11.07;;;;;;;5.44;86.67;98624.44;10225171;28;20059;-65
2023/11/30 10:07:11;;;;;;;13.55;10.88;;;;;;;5.49;85.79;98622.22;10246667;28;20051;-61
2023/11/30 10:12:12;;;;;;;12.90;11.02;;;;;;;5.59;84.74;98615.19;10215866;28;20084;-63
2023/11/30 10:17:14;;;;;;;12.38;11.07;;;;;;;5.73;83.70;98599.97;10249228;28;20105;-64
2023/11/30 10:22:16;;;;;;;11.27;10.07;;;;;;;5.96;82.47;98592.69;10250044;28;20058;-61
2023/11/30 10:27:21;;;;;;;11.95;10.75;;;;;;;6.19;80.35;98601.25;10248201;28;20061;-63
2023/11/30 10:32:22;;;;;;;12.52;10.40;;;;;;;6.70;79.87;98600.19;10244869;28;20114;-64
2023/11/30 10:37:26;;;;;;;12.05;10.85;;;;;;;7.31;76.77;98600.84;10233551;28;20608;-62
2023/11/30 10:42:32;;;;;;;12.25;11.00;;;;;;;7.22;75.56;98577.84;10242226;28;20054;-64
2023/11/30 10:47:41;;;;;;;12.43;10.90;;;;;;;7.34;74.03;98597.03;10218200;28;20043;-64
2023/11/30 10:52:44;;;;;;;11.02;9.75;;;;;;;8.00;72.40;98555.50;10243358;28;20579;-63
2023/11/30 10:57:46;;;;;;;11.07;9.52;;;;;;;8.18;69.20;98584.69;10248022;28;20074;-63
2023/11/30 11:02:48;;;;;;;11.48;10.25;;;;;;;8.47;68.50;98577.41;10243088;28;20061;-65
2023/11/30 11:07:58;;;;;;;10.57;9.52;;;;;;;8.58;68.16;98564.91;10222301;28;20054;-64
2023/11/30 11:13:00;;;;;;;12.50;11.15;;;;;;;8.92;67.80;98565.03;10241026;28;20419;-63
2023/11/30 11:18:05;;;;;;;10.73;9.63;;;;;;;9.29;64.83;98566.63;10219034;28;20124;-63
2023/11/30 11:23:08;;;;;;;10.85;9.73;;;;;;;9.41;62.26;98559.19;10244206;28;20046;-64
2023/11/30 11:28:11;;;;;;;11.75;10.55;;;;;;;8.95;65.07;98563.91;10241984;28;20051;-62
2023/11/30 11:33:21;;;;;;;11.93;10.68;;;;;;;8.98;65.31;98550.31;10231374;28;20050;-64
2023/11/30 11:38:26;;;;;;;10.80;9.20;;;;;;;8.89;63.72;98560.03;10214199;28;20054;-64
2023/11/30 11:43:30;;;;;;;11.23;9.02;;;;;;;9.19;63.47;98558.75;10216664;28;20117;-65
2023/11/30 11:48:32;;;;;;;10.20;9.10;;;;;;;9.40;62.83;98557.56;10231599;28;20065;-64
2023/11/30 11:53:41;;;;;;;10.23;8.80;;;;;;;9.21;62.39;98510.81;10229941;28;20548;-64
2023/11/30 11:58:44;;;;;;;8.80;7.95;;;;;;;10.05;58.84;98553.50;10216872;28;20047;-62
2023/11/30 12:03:47;;;;;;;9.10;7.45;;;;;;;10.72;54.43;98547.31;10229644;28;20065;-64
2023/11/30 12:08:50;;;;;;;8.50;7.50;;;;;;;11.80;54.25;98546.09;10242043;28;20057;-64
2023/11/30 12:13:54;;;;;;;9.23;8.40;;;;;;;12.61;53.61;98538.66;10179623;28;20063;-64
2023/11/30 12:18:55;;;;;;;10.57;8.45;;;;;;;12.03;53.25;98524.88;10233208;28;20052;-64
2023/11/30 12:23:56;;;;;;;9.30;8.05;;;;;;;12.48;52.12;98525.09;10231315;28;20054;-64
2023/11/30 12:28:58;;;;;;;9.85;8.70;;;;;;;12.91;50.27;98525.41;10241670;28;20063;-62
2023/11/30 12:34:00;;;;;;;9.02;8.05;;;;;;;11.86;52.90;98502.75;10247358;28;20563;-64
2023/11/30 12:39:03;;;;;;;9.48;7.90;;;;;;;11.32;55.41;98504.31;10241787;28;20063;-62
2023/11/30 12:44:05;;;;;;;11.43;10.23;;;;;;;11.77;55.17;98483.31;10233439;28;20059;-61
2023/11/30 12:49:07;;;;;;;10.55;9.10;;;;;;;13.03;52.82;98478.53;10248175;28;20055;-61
2023/11/30 12:54:08;;;;;;;11.80;10.70;;;;;;;13.20;52.07;98491.72;10266932;28;20087;-62
2023/11/30 12:59:11;;;;;;;10.93;9.82;;;;;;;11.80;54.19;98488.28;10243726;28;20070;-61
2023/11/30 13:04:12;;;;;;;11.45;9.93;;;;;;;10.75;58.15;98499.09;10245317;28;20681;-62
2023/11/30 13:09:14;;;;;;;10.70;9.60;;;;;;;10.17;60.81;98491.03;10252875;28;20153;-62
2023/11/30 13:14:17;;;;;;;11.75;9.55;;;;;;;9.84;61.69;98488.31;10214535;28;20089;-64
2023/11/30 13:19:19;;;;;;;11.75;10.55;;;;;;;9.65;63.10;98484.13;10237680;28;20864;-62
2023/11/30 13:24:25;;;;;;;11.30;10.25;;;;;;;9.43;62.64;98488.19;10237990;28;23079;-63
2023/11/30 13:29:28;;;;;;;11.32;10.23;;;;;;;9.37;63.76;98478.19;10233859;28;20054;-65
2023/11/30 13:34:31;;;;;;;12.52;11.23;;;;;;;9.20;65.02;98471.97;10250053;28;20043;-64
2023/11/30 13:39:32;;;;;;;12.82;11.55;;;;;;;9.00;65.29;98476.69;10244722;28;20051;-62
2023/11/30 13:44:34;;;;;;;12.32;11.10;;;;;;;8.69;65.93;98458.56;10246889;28;20046;-63
2023/11/30 13:49:36;;;;;;;13.80;12.38;;;;;;;8.84;66.08;98472.94;10218933;28;20054;-65
2023/11/30 13:54:37;;;;;;;10.80;9.70;;;;;;;8.90;65.16;98482.06;10216968;28;20051;-63
2023/11/30 13:59:39;;;;;;;11.55;10.45;;;;;;;8.91;65.46;98483.75;10215134;28;20481;-61
2023/11/30 14:04:41;;;;;;;11.98;10.77;;;;;;;8.84;65.85;98483.56;10240025;28;20134;-64
2023/11/30 14:09:42;;;;;;;12.98;11.60;;;;;;;8.87;66.28;98477.06;10235932;28;20043;-63
2023/11/30 14:14:47;;;;;;;12.05;10.50;;;;;;;8.71;66.19;98476.97;10248162;28;20081;-63
2023/11/30 14:19:49;;;;;;;11.20;9.98;;;;;;;8.63;66.88;98483.06;10235922;28;20534;-64
2023/11/30 14:24:51;;;;;;;12.80;10.25;;;;;;;8.41;66.40;98487.84;10230963;28;20054;-63
2023/11/30 14:29:54;;;;;;;11.93;9.95;;;;;;;8.30;68.26;98480.09;10248127;28;20054;-64
2023/11/30 14:34:56;;;;;;;12.35;11.02;;;;;;;8.20;68.56;98492.63;10224755;28;20082;-62
2023/11/30 14:39:57;;;;;;;11.18;10.07;;;;;;;8.14;69.63;98486.94;10240186;28;20054;-62
2023/11/30 14:44:59;;;;;;;11.85;10.50;;;;;;;8.04;69.83;98491.47;10210146;28;20102;-63
2023/11/30 14:50:01;;;;;;;13.77;11.88;;;;;;;7.97;71.31;98485.09;10191750;28;20054;-64
2023/11/30 14:55:05;;;;;;;13.00;11.18;;;;;;;7.79;71.52;98472.69;10241744;28;20062;-63
2023/11/30 15:00:13;;;;;;;12.75;11.50;;;;;;;7.78;71.23;98494.84;10236771;28;20485;-64
2023/11/30 15:05:16;;;;;;;12.40;11.10;;;;;;;7.65;72.20;98499.66;10196673;28;20050;-62
2023/11/30 15:10:19;;;;;;;14.35;12.85;;;;;;;7.58;73.01;98503.88;10248825;28;20058;-64
2023/11/30 15:15:21;;;;;;;17.55;13.13;;;;;;;7.52;74.08;98507.97;10242744;28;20066;-64
2023/11/30 15:20:23;;;;;;;14.48;12.65;;;;;;;7.48;74.29;98513.69;10246971;28;20547;-63
2023/11/30 15:25:25;;;;;;;18.83;12.82;;;;;;;7.38;74.45;98517.19;10216933;28;20077;-63
2023/11/30 15:30:27;;;;;;;14.75;13.20;;;;;;;7.18;75.47;98528.84;10232663;28;20181;-63
2023/11/30 15:35:28;;;;;;;14.00;12.60;;;;;;;7.10;75.63;98531.38;10249015;28;20051;-63
2023/11/30 15:40:30;;;;;;;15.68;13.57;;;;;;;6.98;75.72;98526.25;10235048;28;20764;-64
2023/11/30 15:45:34;;;;;;;15.35;13.07;;;;;;;6.84;75.88;98529.34;10240413;28;20430;-63
2023/11/30 15:50:35;;;;;;;14.63;12.98;;;;;;;6.80;76.29;98512.06;10257533;28;20054;-63
2023/11/30 15:55:37;;;;;;;15.80;13.70;;;;;;;6.67;76.49;98523.78;10242951;28;20058;-64
2023/11/30 16:00:39;;;;;;;15.00;13.40;;;;;;;6.62;76.39;98511.97;10233019;28;20521;-65
2023/11/30 16:05:40;;;;;;;14.63;12.70;;;;;;;6.65;76.97;98509.88;10243321;28;20061;-64
2023/11/30 16:10:41;;;;;;;13.73;12.27;;;;;;;6.60;76.63;98514.75;10228161;28;20551;-64
2023/11/30 16:15:43;;;;;;;15.32;12.48;;;;;;;6.55;76.79;98546.91;10244404;28;20063;-65
2023/11/30 16:20:45;;;;;;;14.35;12.68;;;;;;;6.54;76.93;98547.03;10232204;28;20504;-66
2023/11/30 16:25:46;;;;;;;17.25;14.13;;;;;;;6.46;77.12;98541.63;10225553;28;20061;-64
2023/11/30 16:30:48;;;;;;;14.45;12.95;;;;;;;6.44;76.95;98543.56;10243430;28;20043;-64
2023/11/30 16:35:49;;;;;;;15.98;12.55;;;;;;;6.32;76.87;98530.50;10232801;28;20059;-65
2023/11/30 16:40:51;;;;;;;14.65;13.13;;;;;;;6.35;77.39;98545.22;10242851;28;20164;-62
2023/11/30 16:45:53;;;;;;;15.02;12.60;;;;;;;6.25;77.14;98539.13;10248317;28;20066;-63
2023/11/30 16:50:55;;;;;;;13.88;12.43;;;;;;;6.29;77.50;98541.34;10238737;28;20059;-64
2023/11/30 16:55:56;;;;;;;15.38;12.82;;;;;;;6.14;77.65;98511.84;10254880;28;20151;-64
2023/11/30 17:00:59;;;;;;;14.90;12.88;;;;;;;6.22;77.94;98534.09;10247857;28;20055;-65
2023/11/30 17:06:01;;;;;;;16.25;13.48;;;;;;;6.11;77.45;98535.91;10238309;28;20144;-63
2023/11/30 17:11:05;;;;;;;15.07;13.23;;;;;;;5.84;78.41;98483.72;10248745;28;20492;-64
2023/11/30 17:16:07;;;;;;;16.10;14.35;;;;;;;5.91;78.14;98508.56;10242939;28;20773;-64
2023/11/30 17:21:09;;;;;;;16.17;14.48;;;;;;;5.96;78.48;98529.28;10248686;28;20187;-64
2023/11/30 17:26:11;;;;;;;15.23;13.65;;;;;;;5.93;78.13;98525.13;10240911;28;20130;-63
2023/11/30 17:31:12;;;;;;;15.95;14.07;;;;;;;5.90;78.61;98525.41;10243386;28;20151;-64
2023/11/30 17:36:14;;;;;;;17.13;15.32;;;;;;;5.95;78.43;98538.22;10236390;28;20070;-64
2023/11/30 17:41:17;;;;;;;17.02;13.65;;;;;;;5.87;78.18;98522.19;10237758;28;20081;-63
2023/11/30 17:46:18;;;;;;;16.63;13.93;;;;;;;5.87;78.91;98525.69;10216014;28;20059;-64
2023/11/30 17:51:20;;;;;;;15.23;13.70;;;;;;;5.78;78.39;98542.31;10193129;28;20545;-64
2023/11/30 17:56:21;;;;;;;15.02;12.68;;;;;;;5.80;78.81;98545.66;10224589;28;20117;-63
2023/11/30 18:01:23;;;;;;;15.07;13.48;;;;;;;5.84;79.11;98549.72;10211246;28;20166;-65
2023/11/30 18:06:26;;;;;;;14.88;13.35;;;;;;;5.77;78.51;98548.59;10217414;28;20720;-64
2023/11/30 18:11:27;;;;;;;13.75;12.05;;;;;;;5.79;79.16;98559.84;10242889;28;20452;-64
2023/11/30 18:16:29;;;;;;;15.63;13.93;;;;;;;5.70;78.60;98571.19;10225559;28;20485;-64
2023/11/30 18:21:33;;;;;;;15.55;13.52;;;;;;;5.74;78.75;98575.25;10233480;28;20191;-66
2023/11/30 18:26:35;;;;;;;16.25;14.55;;;;;;;5.52;78.44;98555.16;10253820;28;20051;-63
2023/11/30 18:31:37;;;;;;;17.35;14.25;;;;;;;5.66;78.38;98576.75;10250774;28;20156;-64
2023/11/30 18:36:40;;;;;;;15.48;13.85;;;;;;;5.62;78.71;98579.78;10246999;28;20597;-64
2023/11/30 18:41:42;;;;;;;16.45;14.70;;;;;;;5.49;78.91;98564.16;10223640;28;20070;-64
2023/11/30 18:46:44;;;;;;;16.77;14.43;;;;;;;5.51;79.32;98561.41;10218949;28;20042;-64
2023/11/30 18:51:48;;;;;;;17.50;14.95;;;;;;;5.53;79.76;98570.88;10212523;28;20131;-63
2023/11/30 18:56:50;;;;;;;18.92;15.65;;;;;;;5.52;79.43;98577.09;10253589;28;20063;-64
2023/11/30 19:01:52;;;;;;;19.35;16.20;;;;;;;5.44;78.96;98575.13;10217531;28;20047;-64
2023/11/30 19:06:57;;;;;;;16.65;14.82;;;;;;;5.49;79.91;98580.88;10228061;28;20472;-64
2023/11/30 19:11:59;;;;;;;19.42;15.43;;;;;;;5.41;79.83;98575.41;10247521;28;20051;-62
2023/11/30 19:17:01;;;;;;;17.95;14.93;;;;;;;5.49;79.59;98582.66;10230884;28;20134;-64
2023/11/30 19:22:02;;;;;;;21.77;16.38;;;;;;;5.42;79.58;98573.56;10239936;28;20616;-65
2023/11/30 19:27:04;;;;;;;21.38;16.63;;;;;;;5.35;79.44;98568.00;10241395;28;20058;-64
2023/11/30 19:32:06;;;;;;;20.63;15.15;;;;;;;5.46;79.51;98585.56;10230012;28;20904;-65
2023/11/30 19:37:07;;;;;;;21.33;16.73;;;;;;;5.34;79.46;98582.16;10218892;28;20055;-64
2023/11/30 19:42:09;;;;;;;19.42;16.98;;;;;;;5.42;79.58;98584.13;10244495;28;20055;-63
2023/11/30 19:47:13;;;;;;;15.53;12.23;;;;;;;5.39;79.31;98600.22;10243626;28;20136;-63
2023/11/30 19:52:17;;;;;;;20.60;15.88;;;;;;;5.44;79.79;98582.22;10190261;28;20429;-64
2023/11/30 19:57:19;;;;;;;18.15;14.77;;;;;;;5.38;79.64;98578.28;10221298;28;20051;-64
2023/11/30 20:02:20;;;;;;;20.38;16.60;;;;;;;5.42;79.83;98584.13;10219473;28;20535;-64
2023/11/30 20:07:23;;;;;;;18.17;15.43;;;;;;;5.48;80.43;98591.56;10240071;28;20504;-64
2023/11/30 20:12:25;;;;;;;19.02;15.85;;;;;;;5.45;79.55;98590.00;10240980;28;20051;-64
2023/11/30 20:17:28;;;;;;;19.08;15.00;;;;;;;5.41;79.78;98578.03;10232773;28;20050;-63
2023/11/30 20:22:30;;;;;;;20.00;16.25;;;;;;;5.48;79.53;98592.38;10240583;28;20067;-64
2023/11/30 20:27:32;;;;;;;19.35;14.85;;;;;;;5.53;79.77;98591.16;10214520;28;20102;-64
2023/11/30 20:32:34;;;;;;;19.58;15.13;;;;;;;5.53;79.90;98597.25;10210947;28;20062;-65
2023/11/30 20:37:36;;;;;;;18.95;15.18;;;;;;;5.51;79.49;98598.34;10229645;28;20094;-65
2023/11/30 20:42:37;;;;;;;21.85;15.70;;;;;;;5.47;79.76;98603.06;10233332;28;20080;-65
2023/11/30 20:47:39;;;;;;;19.08;15.13;;;;;;;5.48;79.77;98610.84;10225671;28;20055;-64
2023/11/30 20:52:40;;;;;;;21.17;16.20;;;;;;;5.27;79.77;98575.75;10245394;28;20074;-64
2023/11/30 20:57:44;;;;;;;21.48;16.05;;;;;;;5.48;80.04;98605.56;10239774;28;20059;-66
2023/11/30 21:02:46;;;;;;;19.33;15.50;;;;;;;5.46;79.80;98618.06;10237309;28;20058;-64
2023/11/30 21:07:48;;;;;;;21.73;16.73;;;;;;;5.43;79.87;98614.84;10232071;28;20047;-64
2023/11/30 21:12:51;;;;;;;18.42;15.25;;;;;;;5.45;80.30;98610.25;10235918;28;20046;-63
2023/11/30 21:17:52;;;;;;;19.17;16.70;;;;;;;5.33;80.38;98596.34;10215067;28;20065;-63
2023/11/30 21:22:56;;;;;;;21.83;16.90;;;;;;;5.49;80.09;98632.78;10245205;28;20980;-64
2023/11/30 21:27:58;;;;;;;19.73;16.33;;;;;;;5.50;80.06;98626.56;10237442;28;20119;-65
2023/11/30 21:32:59;;;;;;;20.85;15.93;;;;;;;5.43;79.75;98623.59;10248993;28;20509;-65
2023/11/30 21:38:01;;;;;;;22.38;17.67;;;;;;;5.37;79.98;98623.28;10244326;28;20134;-63
2023/11/30 21:43:03;;;;;;;22.85;17.98;;;;;;;5.37;80.97;98631.19;10246512;28;20125;-64
2023/11/30 21:48:04;;;;;;;21.55;16.95;;;;;;;5.42;80.89;98629.00;10222857;28;20545;-65
2023/11/30 21:53:06;;;;;;;22.20;17.40;;;;;;;5.41;80.45;98628.16;10245822;28;20070;-64
2023/11/30 21:58:08;;;;;;;22.85;17.40;;;;;;;5.36;80.54;98617.19;10220237;28;20083;-64
2023/11/30 22:03:10;;;;;;;23.45;17.50;;;;;;;5.38;80.62;98625.78;10247589;28;20055;-64
2023/11/30 22:08:17;;;;;;;20.63;16.25;;;;;;;5.34;80.32;98615.63;10249415;28;20127;-64
2023/11/30 22:13:18;;;;;;;22.27;16.33;;;;;;;5.40;80.13;98623.84;10233287;28;20059;-63
2023/11/30 22:18:22;;;;;;;16.70;14.25;;;;;;;5.30;80.14;98607.97;10224874;28;20175;-67
2023/11/30 22:23:23;;;;;;;19.05;14.68;;;;;;;5.38;79.46;98636.34;10232897;28;20146;-65
2023/11/30 22:28:26;;;;;;;17.48;14.70;;;;;;;5.31;80.07;98636.03;10246900;28;20061;-64
2023/11/30 22:33:28;;;;;;;17.50;14.27;;;;;;;5.34;79.68;98634.09;10219759;28;20051;-64
2023/11/30 22:38:31;;;;;;;18.83;14.43;;;;;;;5.37;79.58;98644.41;10232812;28;20054;-63
2023/11/30 22:43:42;;;;;;;19.65;15.10;;;;;;;5.38;79.70;98646.06;10242584;28;20043;-63
2023/11/30 22:48:46;;;;;;;17.80;14.35;;;;;;;5.41;79.79;98645.81;10226482;28;20119;-64
2023/11/30 22:53:48;;;;;;;21.38;15.10;;;;;;;5.34;78.47;98644.66;10233333;28;20054;-63
2023/11/30 22:58:52;;;;;;;16.97;14.20;;;;;;;5.27;78.84;98634.63;10244543;28;20098;-64
2023/11/30 23:03:54;;;;;;;18.25;14.00;;;;;;;5.28;78.97;98636.31;10219217;28;20118;-63
2023/11/30 23:08:55;;;;;;;18.48;14.82;;;;;;;5.20;79.37;98622.91;10242899;28;20141;-64
2023/11/30 23:13:57;;;;;;;19.75;15.02;;;;;;;5.25;78.89;98644.44;10246657;28;20709;-65